KVCT/VCT METAR and TAF weather

Enter ICAO airport designator
Station Type Date Time Source
KVCT METAR 2019/12/08 18:51 UTC NOAA

KVCT 081851Z 19009KT 10SM FEW033 25/15 A3001 RMK AO2 SLP159 T02500150 $


Station Type Date Time Source
KVCT Decoded METAR 2019/12/08 18:51 UTC NOAA

VICTORIA REGIONAL AIRPORT, TX, United States (KVCT) 28-52N 96-56W 31M
Dec 08, 2019 - 01:51 PM EST / 2019.12.08 1851 UTC
Wind: from the S (190 degrees) at 10 MPH (9 KT):0
Visibility: 10 mile(s):0
Sky conditions: mostly clear
Temperature: 77.0 F (25.0 C)
Dew Point: 59.0 F (15.0 C)
Relative Humidity: 53%
Pressure (altimeter): 30.01 in. Hg (1016 hPa)
ob: KVCT 081851Z 19009KT 10SM FEW033 25/15 A3001 RMK AO2 SLP159 T02500150
cycle: 19

Station Type Date Time Source
KVCT TAF 2019/12/08 18:42 UTC NOAA

TAF KVCT 081739Z 0818/0918 17010KT P6SM FEW025
FM090500 18006KT 4SM BR SCT006
FM090700 18006KT 1SM BR OVC005
TEMPO 0908/0912 1/2SM FG OVC003
FM091500 21006KT 5SM BR OVC008

Example: see airport list